Aviation Digital Data Service (ADDS)

Output produced by TAFs form (0535 UTC 11 December 2017)
found at http://www.aviationweather.gov/adds/tafs/
 
KPIT 110451Z 23008KT 10SM OVC037 01/M08 A2996 RMK AO2 SLP164 T00061078 400061017
KPIT 110250Z 1103/1206 24010KT P6SM OVC050 
     FM110600 26008KT P6SM OVC025 
     FM111900 22006KT P6SM BKN070 
     FM120500 24008KT P6SM VCSH OVC040
       
KAGC 110453Z 24010KT 10SM OVC038 M01/M09 A2995 RMK AO2 SLP162 T10061094 400001033
KAGC 102320Z 1100/1124 22010KT P6SM BKN050 
     FM110500 24008KT P6SM VCSH OVC025 
     FM110900 27010KT P6SM OVC015 
     FM112000 22006KT P6SM BKN070
       
KBVI 102320Z 1100/1124 22008KT P6SM BKN050 
     FM110500 24008KT P6SM VCSH OVC025 
     FM110900 27010KT P6SM OVC015 
     FM111800 22006KT P6SM BKN070 AMD NOT SKED 1102/1112
       
KFKL 110456Z AUTO 23007KT 4SM -SN BKN024 OVC029 M04/M07 A2991 RMK AO2 SLP149 P0000 T10391067 410221039 FZRANO
KFKL 110235Z 1103/1124 24007KT P6SM -SN OVC050 
     FM110400 24010KT 3SM -SN OVC012 
     FM110900 26006KT P6SM -SHSN OVC015 
     FM111200 22008KT P6SM BKN020 
     FM112100 20006KT P6SM BKN050
       
KYNG 110451Z 25006KT 7SM -SN BKN028 OVC041 M02/M07 A2993 RMK AO2 SLP150 P0000 T10171067 410061033
KYNG 110326Z 1103/1124 26010KT P6SM VCSH SCT015 OVC025 
     FM112100 18006KT P6SM SCT025 OVC035